sensor_id;sensor_type;location;lat;lon;timestamp;noise_LAeq;noise_LA_min;noise_LA_max;noise_LA01;noise_LA95
64393;Laerm;50712;49.506;10.400;2023-04-01T00:00:01;31.50;28.64;39.62;;
64393;Laerm;50712;49.506;10.400;2023-04-01T00:00:31;31.35;28.77;37.88;;
64393;Laerm;50712;49.506;10.400;2023-04-01T00:01:02;30.67;28.57;33.84;;
64393;Laerm;50712;49.506;10.400;2023-04-01T00:01:33;31.04;29.11;33.58;;
64393;Laerm;50712;49.506;10.400;2023-04-01T00:02:04;32.45;29.02;43.09;;
64393;Laerm;50712;49.506;10.400;2023-04-01T00:02:34;31.20;28.85;35.53;;
64393;Laerm;50712;49.506;10.400;2023-04-01T00:03:05;33.24;29.78;44.28;;
64393;Laerm;50712;49.506;10.400;2023-04-01T00:03:35;31.96;29.13;35.85;;
64393;Laerm;50712;49.506;10.400;2023-04-01T00:04:06;32.35;29.78;36.55;;
64393;Laerm;50712;49.506;10.400;2023-04-01T00:04:36;31.24;28.81;36.37;;
64393;Laerm;50712;49.506;10.400;2023-04-01T00:05:07;33.08;29.71;43.43;;
64393;Laerm;50712;49.506;10.400;2023-04-01T00:05:37;34.89;28.74;45.44;;
64393;Laerm;50712;49.506;10.400;2023-04-01T00:06:09;30.49;28.66;33.58;;
64393;Laerm;50712;49.506;10.400;2023-04-01T00:06:41;30.22;28.48;32.84;;
64393;Laerm;50712;49.506;10.400;2023-04-01T00:07:11;31.58;28.68;36.23;;
64393;Laerm;50712;49.506;10.400;2023-04-01T00:07:42;32.57;29.46;40.86;;
64393;Laerm;50712;49.506;10.400;2023-04-01T00:08:13;30.59;28.76;32.41;;
64393;Laerm;50712;49.506;10.400;2023-04-01T00:08:44;30.46;28.89;32.10;;
64393;Laerm;50712;49.506;10.400;2023-04-01T00:09:15;31.30;29.08;41.15;;
64393;Laerm;50712;49.506;10.400;2023-04-01T00:09:45;31.26;28.85;34.28;;
64393;Laerm;50712;49.506;10.400;2023-04-01T00:10:16;32.59;29.49;46.27;;
64393;Laerm;50712;49.506;10.400;2023-04-01T00:11:17;31.67;28.86;37.55;;
64393;Laerm;50712;49.506;10.400;2023-04-01T00:11:48;33.38;29.18;42.03;;
64393;Laerm;50712;49.506;10.400;2023-04-01T00:12:18;33.31;30.04;39.89;;
64393;Laerm;50712;49.506;10.400;2023-04-01T00:12:49;32.02;29.07;44.56;;
64393;Laerm;50712;49.506;10.400;2023-04-01T00:13:20;30.80;28.66;36.75;;
64393;Laerm;50712;49.506;10.400;2023-04-01T00:13:51;30.76;28.82;40.69;;
64393;Laerm;50712;49.506;10.400;2023-04-01T00:14:21;30.68;29.10;33.97;;
64393;Laerm;50712;49.506;10.400;2023-04-01T00:14:51;30.20;28.73;33.01;;
64393;Laerm;50712;49.506;10.400;2023-04-01T00:15:22;30.57;28.84;38.27;;
64393;Laerm;50712;49.506;10.400;2023-04-01T00:15:54;31.59;28.89;44.32;;
64393;Laerm;50712;49.506;10.400;2023-04-01T00:16:25;30.58;28.30;44.55;;
64393;Laerm;50712;49.506;10.400;2023-04-01T00:16:55;30.72;28.11;46.13;;
64393;Laerm;50712;49.506;10.400;2023-04-01T00:17:57;34.02;28.38;56.19;;
64393;Laerm;50712;49.506;10.400;2023-04-01T00:18:27;30.08;28.30;36.38;;
64393;Laerm;50712;49.506;10.400;2023-04-01T00:19:58;30.61;28.40;37.12;;
64393;Laerm;50712;49.506;10.400;2023-04-01T00:20:29;30.26;28.07;35.02;;
64393;Laerm;50712;49.506;10.400;2023-04-01T00:20:59;29.88;28.31;34.47;;
64393;Laerm;50712;49.506;10.400;2023-04-01T00:21:30;30.17;28.50;45.97;;
64393;Laerm;50712;49.506;10.400;2023-04-01T00:22:31;29.83;28.20;32.66;;
64393;Laerm;50712;49.506;10.400;2023-04-01T00:23:01;29.95;28.28;33.39;;
64393;Laerm;50712;49.506;10.400;2023-04-01T00:23:32;30.01;28.53;32.75;;
64393;Laerm;50712;49.506;10.400;2023-04-01T00:24:03;35.42;28.74;60.04;;
64393;Laerm;50712;49.506;10.400;2023-04-01T00:24:33;30.54;28.59;33.60;;
64393;Laerm;50712;49.506;10.400;2023-04-01T00:25:04;31.17;28.93;37.04;;
64393;Laerm;50712;49.506;10.400;2023-04-01T00:25:35;30.18;28.51;34.31;;
64393;Laerm;50712;49.506;10.400;2023-04-01T00:26:05;30.33;28.38;32.65;;
64393;Laerm;50712;49.506;10.400;2023-04-01T00:26:35;33.18;29.43;39.46;;
64393;Laerm;50712;49.506;10.400;2023-04-01T00:27:06;32.61;29.37;38.29;;
64393;Laerm;50712;49.506;10.400;2023-04-01T00:27:37;30.87;28.80;36.37;;
64393;Laerm;50712;49.506;10.400;2023-04-01T00:28:08;30.82;28.53;45.59;;
64393;Laerm;50712;49.506;10.400;2023-04-01T00:28:38;31.15;28.96;39.24;;
64393;Laerm;50712;49.506;10.400;2023-04-01T00:29:08;33.94;29.60;42.40;;
64393;Laerm;50712;49.506;10.400;2023-04-01T00:29:42;39.09;31.45;53.15;;
64393;Laerm;50712;49.506;10.400;2023-04-01T00:30:13;37.24;30.21;44.89;;
64393;Laerm;50712;49.506;10.400;2023-04-01T00:30:43;33.12;29.89;38.94;;
64393;Laerm;50712;49.506;10.400;2023-04-01T00:31:14;34.41;30.10;42.19;;
64393;Laerm;50712;49.506;10.400;2023-04-01T00:31:44;32.76;29.53;39.16;;
64393;Laerm;50712;49.506;10.400;2023-04-01T00:32:15;30.42;28.71;32.23;;
64393;Laerm;50712;49.506;10.400;2023-04-01T00:32:45;30.44;28.63;33.33;;
64393;Laerm;50712;49.506;10.400;2023-04-01T00:33:15;29.88;28.35;36.06;;
64393;Laerm;50712;49.506;10.400;2023-04-01T00:33:46;30.64;28.39;34.51;;
64393;Laerm;50712;49.506;10.400;2023-04-01T00:34:17;30.52;28.75;33.81;;
64393;Laerm;50712;49.506;10.400;2023-04-01T00:34:50;30.17;28.18;33.78;;
64393;Laerm;50712;49.506;10.400;2023-04-01T00:35:21;30.18;28.44;33.00;;
64393;Laerm;50712;49.506;10.400;2023-04-01T00:35:52;30.18;28.44;32.29;;
64393;Laerm;50712;49.506;10.400;2023-04-01T00:36:22;30.38;28.49;34.77;;
64393;Laerm;50712;49.506;10.400;2023-04-01T00:36:53;30.70;28.59;34.63;;
64393;Laerm;50712;49.506;10.400;2023-04-01T00:37:24;30.89;28.63;34.21;;
64393;Laerm;50712;49.506;10.400;2023-04-01T00:37:54;30.86;28.73;39.19;;
64393;Laerm;50712;49.506;10.400;2023-04-01T00:38:57;33.02;28.68;47.15;;
64393;Laerm;50712;49.506;10.400;2023-04-01T00:39:30;33.30;29.16;45.58;;
64393;Laerm;50712;49.506;10.400;2023-04-01T00:40:00;30.96;28.94;36.07;;
64393;Laerm;50712;49.506;10.400;2023-04-01T00:40:33;30.72;28.77;36.67;;
64393;Laerm;50712;49.506;10.400;2023-04-01T00:41:05;30.35;28.71;32.84;;
64393;Laerm;50712;49.506;10.400;2023-04-01T00:41:36;30.68;28.58;34.00;;
64393;Laerm;50712;49.506;10.400;2023-04-01T00:42:06;30.04;28.18;32.26;;
64393;Laerm;50712;49.506;10.400;2023-04-01T00:42:37;31.03;28.96;36.50;;
64393;Laerm;50712;49.506;10.400;2023-04-01T00:43:17;30.18;28.20;38.38;;
64393;Laerm;50712;49.506;10.400;2023-04-01T00:43:50;30.72;28.14;35.91;;
64393;Laerm;50712;49.506;10.400;2023-04-01T00:44:23;30.84;28.75;38.15;;
64393;Laerm;50712;49.506;10.400;2023-04-01T00:44:55;30.47;28.62;36.46;;
64393;Laerm;50712;49.506;10.400;2023-04-01T00:45:29;29.94;28.28;34.58;;
64393;Laerm;50712;49.506;10.400;2023-04-01T00:46:00;30.13;28.44;34.39;;
64393;Laerm;50712;49.506;10.400;2023-04-01T00:46:30;29.54;28.14;30.87;;
64393;Laerm;50712;49.506;10.400;2023-04-01T00:47:31;29.66;28.20;32.84;;
64393;Laerm;50712;49.506;10.400;2023-04-01T00:48:38;36.54;28.26;40.54;;
64393;Laerm;50712;49.506;10.400;2023-04-01T00:49:09;37.37;28.08;40.62;;
64393;Laerm;50712;49.506;10.400;2023-04-01T00:49:43;29.51;28.17;31.32;;
64393;Laerm;50712;49.506;10.400;2023-04-01T00:50:14;29.76;27.93;32.15;;
64393;Laerm;50712;49.506;10.400;2023-04-01T00:50:49;29.61;28.24;33.64;;
64393;Laerm;50712;49.506;10.400;2023-04-01T00:51:23;29.54;28.17;34.41;;
64393;Laerm;50712;49.506;10.400;2023-04-01T00:51:57;29.64;28.28;34.74;;
64393;Laerm;50712;49.506;10.400;2023-04-01T00:52:29;29.68;28.20;35.51;;
64393;Laerm;50712;49.506;10.400;2023-04-01T00:53:00;29.39;27.87;33.65;;
64393;Laerm;50712;49.506;10.400;2023-04-01T00:53:34;30.11;28.16;33.51;;
64393;Laerm;50712;49.506;10.400;2023-04-01T00:54:07;29.88;28.22;32.64;;
64393;Laerm;50712;49.506;10.400;2023-04-01T00:54:42;29.37;28.02;31.28;;
64393;Laerm;50712;49.506;10.400;2023-04-01T00:55:16;29.51;28.22;31.15;;
64393;Laerm;50712;49.506;10.400;2023-04-01T00:55:54;30.15;28.06;38.70;;
64393;Laerm;50712;49.506;10.400;2023-04-01T00:56:27;30.67;28.62;40.96;;
64393;Laerm;50712;49.506;10.400;2023-04-01T00:57:05;29.80;28.35;32.46;;
64393;Laerm;50712;49.506;10.400;2023-04-01T00:57:37;29.96;28.08;35.56;;
64393;Laerm;50712;49.506;10.400;2023-04-01T00:58:11;29.94;28.41;33.84;;
64393;Laerm;50712;49.506;10.400;2023-04-01T00:58:50;29.80;27.97;31.26;;
64393;Laerm;50712;49.506;10.400;2023-04-01T00:59:27;30.21;28.02;36.13;;
64393;Laerm;50712;49.506;10.400;2023-04-01T00:59:59;30.39;28.52;34.41;;
64393;Laerm;50712;49.506;10.400;2023-04-01T01:00:30;31.25;29.24;39.41;;
64393;Laerm;50712;49.506;10.400;2023-04-01T01:01:01;30.54;28.68;34.36;;
64393;Laerm;50712;49.506;10.400;2023-04-01T01:01:32;30.67;28.67;36.89;;
64393;Laerm;50712;49.506;10.400;2023-04-01T01:02:05;29.91;28.19;37.94;;
64393;Laerm;50712;49.506;10.400;2023-04-01T01:02:37;31.21;28.80;41.92;;
64393;Laerm;50712;49.506;10.400;2023-04-01T01:03:08;31.72;28.93;37.59;;
64393;Laerm;50712;49.506;10.400;2023-04-01T01:03:38;30.39;28.58;33.67;;
64393;Laerm;50712;49.506;10.400;2023-04-01T01:04:22;30.37;28.32;43.19;;
64393;Laerm;50712;49.506;10.400;2023-04-01T01:04:52;31.40;28.50;43.33;;
64393;Laerm;50712;49.506;10.400;2023-04-01T01:05:33;30.11;28.28;37.02;;
64393;Laerm;50712;49.506;10.400;2023-04-01T01:09:01;32.07;29.41;35.88;;
64393;Laerm;50712;49.506;10.400;2023-04-01T01:09:31;31.08;29.02;38.30;;
64393;Laerm;50712;49.506;10.400;2023-04-01T01:10:42;30.90;28.72;35.45;;
64393;Laerm;50712;49.506;10.400;2023-04-01T01:11:22;31.72;28.87;40.53;;
64393;Laerm;50712;49.506;10.400;2023-04-01T01:12:14;30.44;28.42;43.24;;
64393;Laerm;50712;49.506;10.400;2023-04-01T01:16:30;29.94;28.23;33.84;;
64393;Laerm;50712;49.506;10.400;2023-04-01T01:18:03;31.24;28.30;41.62;;
64393;Laerm;50712;49.506;10.400;2023-04-01T01:18:42;31.29;28.71;39.73;;
64393;Laerm;50712;49.506;10.400;2023-04-01T01:23:57;33.10;29.89;42.00;;
64393;Laerm;50712;49.506;10.400;2023-04-01T01:24:46;31.60;29.45;36.50;;
64393;Laerm;50712;49.506;10.400;2023-04-01T01:26:49;44.54;30.19;68.43;;
64393;Laerm;50712;49.506;10.400;2023-04-01T01:27:22;32.45;29.89;37.76;;
64393;Laerm;50712;49.506;10.400;2023-04-01T01:28:47;32.16;30.02;35.91;;
64393;Laerm;50712;49.506;10.400;2023-04-01T01:29:41;32.59;29.82;37.20;;
64393;Laerm;50712;49.506;10.400;2023-04-01T01:31:24;32.16;29.80;34.53;;
64393;Laerm;50712;49.506;10.400;2023-04-01T01:32:07;31.61;28.91;37.46;;
64393;Laerm;50712;49.506;10.400;2023-04-01T01:33:25;30.49;28.95;32.96;;
64393;Laerm;50712;49.506;10.400;2023-04-01T01:35:54;31.95;29.76;36.80;;
64393;Laerm;50712;49.506;10.400;2023-04-01T01:36:30;33.15;29.64;41.30;;
64393;Laerm;50712;49.506;10.400;2023-04-01T01:37:06;34.98;30.37;43.53;;
64393;Laerm;50712;49.506;10.400;2023-04-01T01:37:42;32.84;30.13;36.56;;
64393;Laerm;50712;49.506;10.400;2023-04-01T01:38:17;31.86;29.60;34.59;;
64393;Laerm;50712;49.506;10.400;2023-04-01T01:38:54;31.60;29.64;33.99;;
64393;Laerm;50712;49.506;10.400;2023-04-01T01:39:28;31.79;30.05;38.65;;
64393;Laerm;50712;49.506;10.400;2023-04-01T01:40:05;32.97;30.18;46.00;;
64393;Laerm;50712;49.506;10.400;2023-04-01T01:40:41;32.63;29.94;42.34;;
64393;Laerm;50712;49.506;10.400;2023-04-01T01:41:13;33.71;29.51;51.79;;
64393;Laerm;50712;49.506;10.400;2023-04-01T01:41:48;31.61;29.73;37.58;;
64393;Laerm;50712;49.506;10.400;2023-04-01T01:42:20;30.75;29.12;33.85;;
64393;Laerm;50712;49.506;10.400;2023-04-01T01:42:57;30.52;28.90;32.25;;
64393;Laerm;50712;49.506;10.400;2023-04-01T01:43:39;33.32;29.74;40.71;;
64393;Laerm;50712;49.506;10.400;2023-04-01T01:44:15;35.90;31.38;43.77;;
64393;Laerm;50712;49.506;10.400;2023-04-01T01:44:48;34.10;30.20;40.71;;
64393;Laerm;50712;49.506;10.400;2023-04-01T01:45:21;33.63;30.04;39.20;;
64393;Laerm;50712;49.506;10.400;2023-04-01T01:45:56;31.71;29.64;34.88;;
64393;Laerm;50712;49.506;10.400;2023-04-01T01:46:30;31.95;29.35;42.71;;
64393;Laerm;50712;49.506;10.400;2023-04-01T01:47:01;31.77;29.82;34.31;;
64393;Laerm;50712;49.506;10.400;2023-04-01T01:47:32;31.51;29.27;34.52;;
64393;Laerm;50712;49.506;10.400;2023-04-01T01:48:04;32.44;29.39;39.93;;
64393;Laerm;50712;49.506;10.400;2023-04-01T01:48:36;32.64;29.95;40.03;;
64393;Laerm;50712;49.506;10.400;2023-04-01T01:49:09;31.26;29.32;33.36;;
64393;Laerm;50712;49.506;10.400;2023-04-01T01:49:42;31.99;29.68;39.08;;
64393;Laerm;50712;49.506;10.400;2023-04-01T01:50:14;31.74;29.68;37.70;;
64393;Laerm;50712;49.506;10.400;2023-04-01T01:50:47;32.02;29.43;36.13;;
64393;Laerm;50712;49.506;10.400;2023-04-01T01:51:20;34.99;30.19;50.82;;
64393;Laerm;50712;49.506;10.400;2023-04-01T01:51:52;32.17;29.69;41.40;;
64393;Laerm;50712;49.506;10.400;2023-04-01T01:52:23;32.08;29.61;47.15;;
64393;Laerm;50712;49.506;10.400;2023-04-01T01:53:20;33.92;29.64;48.78;;
64393;Laerm;50712;49.506;10.400;2023-04-01T01:53:50;34.80;30.05;56.30;;
64393;Laerm;50712;49.506;10.400;2023-04-01T01:54:23;33.41;29.62;42.06;;
64393;Laerm;50712;49.506;10.400;2023-04-01T01:54:56;32.20;29.55;38.70;;
64393;Laerm;50712;49.506;10.400;2023-04-01T01:55:37;32.54;29.77;42.71;;
64393;Laerm;50712;49.506;10.400;2023-04-01T01:56:10;35.79;30.48;45.22;;
64393;Laerm;50712;49.506;10.400;2023-04-01T01:56:47;32.91;29.93;37.63;;
64393;Laerm;50712;49.506;10.400;2023-04-01T01:57:24;32.07;29.40;44.10;;
64393;Laerm;50712;49.506;10.400;2023-04-01T01:57:59;32.78;29.81;38.22;;
64393;Laerm;50712;49.506;10.400;2023-04-01T01:58:38;33.10;30.28;39.50;;
64393;Laerm;50712;49.506;10.400;2023-04-01T01:59:18;33.13;30.22;38.47;;
64393;Laerm;50712;49.506;10.400;2023-04-01T01:59:54;33.81;29.02;55.15;;
64393;Laerm;50712;49.506;10.400;2023-04-01T02:00:30;32.35;29.44;44.15;;
64393;Laerm;50712;49.506;10.400;2023-04-01T02:01:05;31.87;29.12;41.64;;
64393;Laerm;50712;49.506;10.400;2023-04-01T02:01:41;32.73;29.54;38.82;;
64393;Laerm;50712;49.506;10.400;2023-04-01T02:02:15;32.61;29.48;44.30;;
64393;Laerm;50712;49.506;10.400;2023-04-01T02:02:48;32.83;29.23;39.29;;
64393;Laerm;50712;49.506;10.400;2023-04-01T02:03:21;34.43;29.34;41.80;;
64393;Laerm;50712;49.506;10.400;2023-04-01T02:03:53;33.66;29.93;46.31;;
64393;Laerm;50712;49.506;10.400;2023-04-01T02:04:25;38.98;30.13;56.40;;
64393;Laerm;50712;49.506;10.400;2023-04-01T02:04:55;32.22;28.77;40.63;;
64393;Laerm;50712;49.506;10.400;2023-04-01T02:05:27;33.57;29.44;45.06;;
64393;Laerm;50712;49.506;10.400;2023-04-01T02:06:08;41.38;29.43;60.46;;
64393;Laerm;50712;49.506;10.400;2023-04-01T02:06:46;32.80;29.20;42.74;;
64393;Laerm;50712;49.506;10.400;2023-04-01T02:07:22;31.93;29.14;37.75;;
64393;Laerm;50712;49.506;10.400;2023-04-01T02:08:16;32.08;29.05;37.96;;
64393;Laerm;50712;49.506;10.400;2023-04-01T02:09:21;36.23;31.14;47.10;;
64393;Laerm;50712;49.506;10.400;2023-04-01T02:09:52;33.99;30.25;42.66;;
64393;Laerm;50712;49.506;10.400;2023-04-01T02:10:25;33.37;29.83;40.70;;
64393;Laerm;50712;49.506;10.400;2023-04-01T02:11:04;33.53;28.87;47.08;;
64393;Laerm;50712;49.506;10.400;2023-04-01T02:11:47;30.82;28.95;38.32;;
64393;Laerm;50712;49.506;10.400;2023-04-01T02:12:19;30.91;29.10;34.23;;
64393;Laerm;50712;49.506;10.400;2023-04-01T02:12:51;31.14;29.25;34.67;;
64393;Laerm;50712;49.506;10.400;2023-04-01T02:14:21;31.08;29.03;33.32;;
64393;Laerm;50712;49.506;10.400;2023-04-01T02:14:57;31.12;29.40;33.28;;
64393;Laerm;50712;49.506;10.400;2023-04-01T02:15:32;31.73;29.40;34.55;;
64393;Laerm;50712;49.506;10.400;2023-04-01T02:16:21;31.04;29.05;38.62;;
64393;Laerm;50712;49.506;10.400;2023-04-01T02:17:29;32.21;29.60;39.62;;
64393;Laerm;50712;49.506;10.400;2023-04-01T02:18:00;30.77;28.73;32.55;;
64393;Laerm;50712;49.506;10.400;2023-04-01T02:18:33;31.74;29.22;37.63;;
64393;Laerm;50712;49.506;10.400;2023-04-01T02:19:06;30.97;29.22;34.35;;
64393;Laerm;50712;49.506;10.400;2023-04-01T02:19:46;33.83;29.51;46.63;;
64393;Laerm;50712;49.506;10.400;2023-04-01T02:20:21;35.23;29.20;56.45;;
64393;Laerm;50712;49.506;10.400;2023-04-01T02:20:52;31.66;29.58;38.88;;
64393;Laerm;50712;49.506;10.400;2023-04-01T02:21:26;32.87;29.57;39.38;;
64393;Laerm;50712;49.506;10.400;2023-04-01T02:22:01;31.92;29.38;36.66;;
64393;Laerm;50712;49.506;10.400;2023-04-01T02:22:38;31.63;29.37;37.61;;
64393;Laerm;50712;49.506;10.400;2023-04-01T02:23:12;30.59;28.80;33.17;;
64393;Laerm;50712;49.506;10.400;2023-04-01T02:23:44;30.56;28.96;32.50;;
64393;Laerm;50712;49.506;10.400;2023-04-01T02:24:16;36.71;29.18;52.90;;
64393;Laerm;50712;49.506;10.400;2023-04-01T02:24:48;38.19;32.36;47.92;;
64393;Laerm;50712;49.506;10.400;2023-04-01T02:25:25;32.90;29.67;40.27;;
64393;Laerm;50712;49.506;10.400;2023-04-01T02:25:57;30.88;29.18;33.34;;
64393;Laerm;50712;49.506;10.400;2023-04-01T02:26:27;31.54;29.11;37.44;;
64393;Laerm;50712;49.506;10.400;2023-04-01T02:26:58;31.21;29.24;34.10;;
64393;Laerm;50712;49.506;10.400;2023-04-01T02:27:30;31.22;28.96;42.75;;
64393;Laerm;50712;49.506;10.400;2023-04-01T02:28:02;30.69;29.19;34.72;;
64393;Laerm;50712;49.506;10.400;2023-04-01T02:28:36;31.07;29.12;33.94;;
64393;Laerm;50712;49.506;10.400;2023-04-01T02:29:09;33.04;30.45;44.13;;
64393;Laerm;50712;49.506;10.400;2023-04-01T02:29:42;31.66;29.16;39.26;;
64393;Laerm;50712;49.506;10.400;2023-04-01T02:30:14;30.83;28.97;37.04;;
64393;Laerm;50712;49.506;10.400;2023-04-01T02:30:46;31.37;29.15;34.05;;
64393;Laerm;50712;49.506;10.400;2023-04-01T02:31:18;31.50;29.67;34.67;;
64393;Laerm;50712;49.506;10.400;2023-04-01T02:31:49;34.34;30.00;41.03;;
64393;Laerm;50712;49.506;10.400;2023-04-01T02:32:20;37.75;31.29;46.69;;
64393;Laerm;50712;49.506;10.400;2023-04-01T02:32:51;34.18;29.55;44.71;;
64393;Laerm;50712;49.506;10.400;2023-04-01T02:33:23;33.41;29.88;39.02;;
64393;Laerm;50712;49.506;10.400;2023-04-01T02:33:54;30.87;29.15;33.72;;
64393;Laerm;50712;49.506;10.400;2023-04-01T02:34:25;34.61;29.05;47.11;;
64393;Laerm;50712;49.506;10.400;2023-04-01T02:34:56;32.70;29.17;38.58;;
64393;Laerm;50712;49.506;10.400;2023-04-01T02:35:27;40.57;29.29;61.38;;
64393;Laerm;50712;49.506;10.400;2023-04-01T02:35:58;30.67;28.87;33.69;;
64393;Laerm;50712;49.506;10.400;2023-04-01T02:36:29;30.82;29.09;34.30;;
64393;Laerm;50712;49.506;10.400;2023-04-01T02:36:59;30.64;29.01;32.83;;
64393;Laerm;50712;49.506;10.400;2023-04-01T02:37:30;31.80;29.35;39.19;;
64393;Laerm;50712;49.506;10.400;2023-04-01T02:38:01;31.45;29.25;35.55;;
64393;Laerm;50712;49.506;10.400;2023-04-01T02:38:32;30.71;28.89;33.31;;
64393;Laerm;50712;49.506;10.400;2023-04-01T02:39:05;32.74;29.42;37.05;;
64393;Laerm;50712;49.506;10.400;2023-04-01T02:39:36;36.99;29.72;54.61;;
64393;Laerm;50712;49.506;10.400;2023-04-01T02:40:10;31.65;29.72;36.11;;
64393;Laerm;50712;49.506;10.400;2023-04-01T02:40:43;33.41;28.98;47.08;;
64393;Laerm;50712;49.506;10.400;2023-04-01T02:41:14;30.25;28.60;35.13;;
64393;Laerm;50712;49.506;10.400;2023-04-01T02:41:46;30.30;28.61;32.45;;
64393;Laerm;50712;49.506;10.400;2023-04-01T02:42:16;30.84;28.58;38.55;;
64393;Laerm;50712;49.506;10.400;2023-04-01T02:42:47;33.75;29.31;48.91;;
64393;Laerm;50712;49.506;10.400;2023-04-01T02:43:17;30.98;28.90;40.70;;
64393;Laerm;50712;49.506;10.400;2023-04-01T02:43:49;30.50;29.00;32.25;;
64393;Laerm;50712;49.506;10.400;2023-04-01T02:44:20;30.26;28.73;32.60;;
64393;Laerm;50712;49.506;10.400;2023-04-01T02:44:51;29.95;28.19;31.99;;
64393;Laerm;50712;49.506;10.400;2023-04-01T02:45:21;30.01;28.60;31.72;;
64393;Laerm;50712;49.506;10.400;2023-04-01T02:45:52;30.31;28.86;33.00;;
64393;Laerm;50712;49.506;10.400;2023-04-01T02:46:53;33.66;29.19;47.44;;
64393;Laerm;50712;49.506;10.400;2023-04-01T02:47:23;31.05;28.98;35.08;;
64393;Laerm;50712;49.506;10.400;2023-04-01T02:47:53;30.54;29.00;32.93;;
64393;Laerm;50712;49.506;10.400;2023-04-01T02:49:24;30.72;28.81;42.65;;
64393;Laerm;50712;49.506;10.400;2023-04-01T02:49:55;30.29;28.84;35.41;;
64393;Laerm;50712;49.506;10.400;2023-04-01T02:50:28;30.16;28.19;34.23;;
64393;Laerm;50712;49.506;10.400;2023-04-01T02:50:58;30.42;28.21;41.76;;
64393;Laerm;50712;49.506;10.400;2023-04-01T02:51:29;33.78;29.79;45.92;;
64393;Laerm;50712;49.506;10.400;2023-04-01T02:51:59;32.64;29.99;41.31;;
64393;Laerm;50712;49.506;10.400;2023-04-01T02:52:30;31.87;29.87;40.19;;
64393;Laerm;50712;49.506;10.400;2023-04-01T02:53:04;30.41;28.73;33.38;;
64393;Laerm;50712;49.506;10.400;2023-04-01T02:53:36;30.39;28.60;32.14;;
64393;Laerm;50712;49.506;10.400;2023-04-01T02:54:06;31.51;29.46;36.75;;
64393;Laerm;50712;49.506;10.400;2023-04-01T02:54:37;30.63;28.58;37.05;;
64393;Laerm;50712;49.506;10.400;2023-04-01T02:55:07;30.08;28.36;32.51;;
64393;Laerm;50712;49.506;10.400;2023-04-01T02:55:38;29.94;28.49;35.57;;
64393;Laerm;50712;49.506;10.400;2023-04-01T02:56:08;30.73;28.43;42.05;;
64393;Laerm;50712;49.506;10.400;2023-04-01T02:56:39;30.50;28.73;42.22;;
64393;Laerm;50712;49.506;10.400;2023-04-01T02:57:09;30.16;28.47;32.67;;
64393;Laerm;50712;49.506;10.400;2023-04-01T02:57:40;30.29;28.51;31.96;;
64393;Laerm;50712;49.506;10.400;2023-04-01T02:58:10;30.13;28.66;32.12;;
64393;Laerm;50712;49.506;10.400;2023-04-01T02:58:40;32.65;28.88;38.69;;
64393;Laerm;50712;49.506;10.400;2023-04-01T02:59:11;30.84;28.62;33.22;;
64393;Laerm;50712;49.506;10.400;2023-04-01T02:59:42;31.34;29.20;36.81;;
64393;Laerm;50712;49.506;10.400;2023-04-01T03:00:13;33.61;29.60;39.48;;
64393;Laerm;50712;49.506;10.400;2023-04-01T03:00:43;31.34;29.13;41.02;;
64393;Laerm;50712;49.506;10.400;2023-04-01T03:01:14;30.90;29.01;34.36;;
64393;Laerm;50712;49.506;10.400;2023-04-01T03:01:44;31.72;29.47;34.59;;
64393;Laerm;50712;49.506;10.400;2023-04-01T03:02:16;35.42;29.93;46.14;;
64393;Laerm;50712;49.506;10.400;2023-04-01T03:02:46;31.58;29.34;34.22;;
64393;Laerm;50712;49.506;10.400;2023-04-01T03:03:17;32.89;29.56;39.28;;
64393;Laerm;50712;49.506;10.400;2023-04-01T03:03:47;31.29;29.36;34.39;;
64393;Laerm;50712;49.506;10.400;2023-04-01T03:04:18;30.84;29.17;34.15;;
64393;Laerm;50712;49.506;10.400;2023-04-01T03:04:48;30.60;28.73;32.59;;
64393;Laerm;50712;49.506;10.400;2023-04-01T03:05:19;30.23;28.86;32.87;;
64393;Laerm;50712;49.506;10.400;2023-04-01T03:05:49;30.74;28.87;36.10;;
64393;Laerm;50712;49.506;10.400;2023-04-01T03:06:20;31.58;29.40;35.83;;
64393;Laerm;50712;49.506;10.400;2023-04-01T03:06:50;31.59;29.64;33.80;;
64393;Laerm;50712;49.506;10.400;2023-04-01T03:07:21;31.17;29.09;35.00;;
64393;Laerm;50712;49.506;10.400;2023-04-01T03:07:52;32.86;29.60;44.92;;
64393;Laerm;50712;49.506;10.400;2023-04-01T03:08:23;35.06;29.75;48.49;;
64393;Laerm;50712;49.506;10.400;2023-04-01T03:08:53;31.16;29.09;34.35;;
64393;Laerm;50712;49.506;10.400;2023-04-01T03:09:24;31.16;29.20;35.05;;
64393;Laerm;50712;49.506;10.400;2023-04-01T03:09:54;30.98;29.14;33.08;;
64393;Laerm;50712;49.506;10.400;2023-04-01T03:10:25;30.43;28.62;33.19;;
64393;Laerm;50712;49.506;10.400;2023-04-01T03:10:55;30.50;28.75;32.43;;
64393;Laerm;50712;49.506;10.400;2023-04-01T03:11:26;30.24;28.84;32.15;;
64393;Laerm;50712;49.506;10.400;2023-04-01T03:11:56;30.35;28.24;32.12;;
64393;Laerm;50712;49.506;10.400;2023-04-01T03:12:27;30.65;29.02;33.28;;
64393;Laerm;50712;49.506;10.400;2023-04-01T03:12:57;31.53;29.21;37.92;;
64393;Laerm;50712;49.506;10.400;2023-04-01T03:13:28;31.04;28.56;39.16;;
64393;Laerm;50712;49.506;10.400;2023-04-01T03:13:58;30.61;29.04;35.38;;
64393;Laerm;50712;49.506;10.400;2023-04-01T03:14:29;30.27;28.76;34.62;;
64393;Laerm;50712;49.506;10.400;2023-04-01T03:14:59;30.12;28.59;33.03;;
64393;Laerm;50712;49.506;10.400;2023-04-01T03:15:30;30.57;28.68;33.55;;
64393;Laerm;50712;49.506;10.400;2023-04-01T03:16:00;30.95;28.73;35.71;;
64393;Laerm;50712;49.506;10.400;2023-04-01T03:16:31;32.28;29.08;42.93;;
64393;Laerm;50712;49.506;10.400;2023-04-01T03:17:01;36.56;29.37;49.28;;
64393;Laerm;50712;49.506;10.400;2023-04-01T03:17:32;32.05;28.88;39.14;;
64393;Laerm;50712;49.506;10.400;2023-04-01T03:18:02;30.88;28.36;35.95;;
64393;Laerm;50712;49.506;10.400;2023-04-01T03:18:33;30.12;28.38;35.31;;
64393;Laerm;50712;49.506;10.400;2023-04-01T03:19:03;30.21;28.46;31.78;;
64393;Laerm;50712;49.506;10.400;2023-04-01T03:19:34;30.54;28.99;33.05;;
64393;Laerm;50712;49.506;10.400;2023-04-01T03:20:10;31.45;28.99;37.74;;
64393;Laerm;50712;49.506;10.400;2023-04-01T03:20:41;31.44;29.30;41.06;;
64393;Laerm;50712;49.506;10.400;2023-04-01T03:21:13;32.17;29.39;37.55;;
64393;Laerm;50712;49.506;10.400;2023-04-01T03:21:43;31.51;28.97;37.31;;
64393;Laerm;50712;49.506;10.400;2023-04-01T03:22:13;30.92;29.17;38.09;;
64393;Laerm;50712;49.506;10.400;2023-04-01T03:22:44;32.14;28.69;43.04;;
64393;Laerm;50712;49.506;10.400;2023-04-01T03:23:16;30.60;28.76;37.35;;
64393;Laerm;50712;49.506;10.400;2023-04-01T03:23:51;31.60;29.43;35.99;;
64393;Laerm;50712;49.506;10.400;2023-04-01T03:24:22;31.24;29.03;36.30;;
64393;Laerm;50712;49.506;10.400;2023-04-01T03:24:52;30.19;28.54;33.72;;
64393;Laerm;50712;49.506;10.400;2023-04-01T03:25:22;30.20;28.71;31.92;;
64393;Laerm;50712;49.506;10.400;2023-04-01T03:25:53;30.69;28.80;40.29;;
64393;Laerm;50712;49.506;10.400;2023-04-01T03:26:24;30.33;28.78;32.46;;